Chita, Russia
Current Conditions -  °F | °C
As of 7:30 PM on Thursday 27 Nov 2014 (Local Time) from UIAA Reporting Station
Scattered Clouds Scattered Clouds  
Wind Chill: -16°   Ceiling: Unl
Heat Index:   Visibility: 6mi
Dew Point: -11°   Wind: 9mph
Humidity: 60%   Direction: 30°NNE
Pressure: 29.91"   Gusts: NA
Location:  52.05°N, 113.46°E
Report Text: UIAA 271030Z 03004MPS 9999 SCT200 M18/M24 Q1013 NOSIG RMKQFE701 29CLRD70
Loading
Personal Weather Stations






























Interactive Weather Map New forecast layout! Learn more

10-Day Weather Forecast

Advertisements
Track Severe Weather on mobile